Time;durP1;ratioP1;P1;durP2;ratioP2;P2;SDS_P1;SDS_P2;PMS_P1;PMS_P2;Temp;Humidity;BMP_temperature;BMP_pressure;BME280_temperature;BME280_humidity;BME280_pressure;Samples;Min_cycle;Max_cycle;Signal;HPM_P1;HPM_P2
2022/06/10 00:02:06;;;;;;;29.27;2.75;;;40.30;24.60;;;;;;5041130;28;20730;-65
2022/06/10 00:04:34;;;;;;;14.23;2.08;;;40.30;24.70;;;;;;5041352;28;20055;-67
2022/06/10 00:07:01;;;;;;;10.32;2.10;;;40.50;24.60;;;;;;5064404;28;20056;-65
2022/06/10 00:09:28;;;;;;;16.40;2.10;;;40.60;24.20;;;;;;5020754;28;20490;-63
2022/06/10 00:11:54;;;;;;;5.93;1.45;;;40.70;24.20;;;;;;5037881;28;20379;-64
2022/06/10 00:14:21;;;;;;;6.07;1.45;;;40.80;24.20;;;;;;5041847;28;20547;-64
2022/06/10 00:16:47;;;;;;;16.23;2.30;;;41.00;24.30;;;;;;5037572;28;20032;-64
2022/06/10 00:19:19;;;;;;;11.13;2.38;;;41.10;24.40;;;;;;5025367;28;20029;-66
2022/06/10 00:21:45;;;;;;;15.18;1.77;;;41.10;24.00;;;;;;5038643;28;20422;-64
2022/06/10 00:24:12;;;;;;;12.98;2.20;;;41.00;24.40;;;;;;5039433;28;20021;-64
2022/06/10 00:26:38;;;;;;;6.03;1.67;;;41.00;24.00;;;;;;5033564;28;20032;-66
2022/06/10 00:29:05;;;;;;;6.60;1.75;;;41.00;24.00;;;;;;5037788;28;20074;-65
2022/06/10 00:31:31;;;;;;;8.05;1.73;;;41.00;24.40;;;;;;5035752;28;20028;-66
2022/06/10 00:33:57;;;;;;;13.05;2.25;;;40.80;24.00;;;;;;5052332;28;20064;-65
2022/06/10 00:36:24;;;;;;;8.93;1.70;;;40.90;24.10;;;;;;5050926;28;20079;-64
2022/06/10 00:38:50;;;;;;;12.90;2.17;;;40.90;24.40;;;;;;5034430;28;20120;-64
2022/06/10 00:41:17;;;;;;;13.45;2.70;;;40.80;24.60;;;;;;5053398;28;20037;-64
2022/06/10 00:43:44;;;;;;;16.45;2.38;;;40.80;24.50;;;;;;5052054;28;20558;-64
2022/06/10 00:46:25;;;;;;;17.08;2.30;;;40.60;24.60;;;;;;5038590;28;20395;-65
2022/06/10 00:48:58;;;;;;;9.73;2.13;;;40.50;24.40;;;;;;5017411;28;20029;-67
2022/06/10 00:51:37;;;;;;;19.58;2.65;;;40.50;24.30;;;;;;5036546;28;20135;-66
2022/06/10 00:54:18;;;;;;;11.38;2.42;;;40.30;24.40;;;;;;5046792;28;20487;-65
2022/06/10 00:56:55;;;;;;;14.70;1.95;;;40.20;24.50;;;;;;5048217;28;20044;-66
2022/06/10 00:59:25;;;;;;;10.93;2.13;;;40.10;24.80;;;;;;5032263;28;20116;-65
2022/06/10 01:01:56;;;;;;;8.55;1.90;;;40.10;25.30;;;;;;5034129;28;20501;-67
2022/06/10 01:04:23;;;;;;;11.93;1.88;;;39.90;25.10;;;;;;5033166;28;20033;-66
2022/06/10 01:06:50;;;;;;;24.17;2.22;;;39.90;25.10;;;;;;5031316;28;20116;-65
2022/06/10 01:09:16;;;;;;;15.88;1.88;;;39.80;25.20;;;;;;5033690;28;20051;-64
2022/06/10 01:12:04;;;;;;;9.18;1.83;;;39.80;25.60;;;;;;5037958;28;20584;-66
2022/06/10 01:14:53;;;;;;;15.77;2.13;;;39.70;26.10;;;;;;5062614;28;20521;-65
2022/06/10 01:17:38;;;;;;;8.93;1.92;;;39.60;26.30;;;;;;5065971;28;20086;-65
2022/06/10 01:20:23;;;;;;;27.17;2.85;;;39.50;26.30;;;;;;5055547;28;20025;-65
2022/06/10 01:23:19;;;;;;;16.67;1.92;;;39.40;27.00;;;;;;5046220;28;20032;-65
2022/06/10 01:26:04;;;;;;;17.27;3.58;;;39.30;26.60;;;;;;5044586;28;20033;-66
2022/06/10 01:28:42;;;;;;;17.83;2.47;;;39.20;26.70;;;;;;5053707;28;20029;-64
2022/06/10 01:31:34;;;;;;;18.08;2.28;;;39.00;26.40;;;;;;5044557;28;20020;-65
2022/06/10 01:34:20;;;;;;;11.80;2.50;;;38.90;26.50;;;;;;5055300;28;20483;-64
2022/06/10 01:37:19;;;;;;;10.30;1.98;;;38.80;26.30;;;;;;5023384;28;20060;-65
2022/06/10 01:39:54;;;;;;;12.05;2.55;;;38.80;25.70;;;;;;5043230;28;20047;-64
2022/06/10 01:42:34;;;;;;;11.57;1.80;;;38.70;25.60;;;;;;5025484;28;20025;-65
2022/06/10 01:45:00;;;;;;;12.63;2.30;;;38.70;25.00;;;;;;5040808;28;20116;-64
2022/06/10 01:48:07;;;;;;;17.10;2.05;;;38.60;25.20;;;;;;5037956;28;20062;-65
2022/06/10 01:50:43;;;;;;;10.50;2.10;;;38.50;26.00;;;;;;5035596;28;20040;-64
2022/06/10 01:53:22;;;;;;;11.20;2.45;;;38.30;26.00;;;;;;5063975;28;20150;-64
2022/06/10 01:56:14;;;;;;;9.82;1.70;;;38.30;26.10;;;;;;5059874;28;20016;-65
2022/06/10 01:59:08;;;;;;;16.08;1.98;;;38.20;26.30;;;;;;5037244;28;20043;-66
2022/06/10 02:01:46;;;;;;;20.17;2.53;;;38.20;26.50;;;;;;5058524;28;20043;-66
2022/06/10 02:04:27;;;;;;;11.85;2.00;;;38.00;26.60;;;;;;5039819;28;20070;-66
2022/06/10 02:06:59;;;;;;;23.77;2.22;;;38.00;26.40;;;;;;5039930;28;20149;-66
2022/06/10 02:09:37;;;;;;;12.98;1.60;;;37.90;25.90;;;;;;5056220;28;20034;-65
2022/06/10 02:12:16;;;;;;;9.68;1.70;;;37.80;25.40;;;;;;5040545;28;20027;-65
2022/06/10 02:15:13;;;;;;;12.48;2.05;;;37.70;25.70;;;;;;5044612;28;20030;-66
2022/06/10 02:17:45;;;;;;;17.65;2.15;;;37.70;26.10;;;;;;5051963;28;20059;-64
2022/06/10 02:20:16;;;;;;;15.40;2.88;;;37.60;26.50;;;;;;5037442;28;20112;-66
2022/06/10 02:22:45;;;;;;;18.05;2.72;;;37.50;26.80;;;;;;5037621;28;20545;-66
2022/06/10 02:25:27;;;;;;;19.85;2.95;;;37.40;27.20;;;;;;5021582;28;20048;-67
2022/06/10 02:27:58;;;;;;;11.80;2.15;;;37.30;26.80;;;;;;5054787;28;20079;-66
2022/06/10 02:30:34;;;;;;;16.33;2.20;;;37.20;26.60;;;;;;5035413;28;20122;-65
2022/06/10 02:33:02;;;;;;;10.57;1.90;;;37.10;24.20;;;;;;5039031;28;20076;-65
2022/06/10 02:35:38;;;;;;;18.75;2.40;;;37.10;24.10;;;;;;5043767;28;20042;-65
2022/06/10 02:38:09;;;;;;;;;;;36.80;24.10;;;;;;5019252;28;20492;-63
2022/06/10 02:41:00;;;;;;;18.30;2.80;;;36.70;24.40;;;;;;5052834;28;20371;-63
2022/06/10 02:43:30;;;;;;;14.10;2.10;;;36.70;23.90;;;;;;5055554;28;20142;-64
2022/06/10 02:46:09;;;;;;;11.35;1.90;;;36.60;23.90;;;;;;5038033;28;20047;-65
2022/06/10 02:48:57;;;;;;;16.20;2.17;;;36.40;24.20;;;;;;5038527;28;20058;-65
2022/06/10 02:51:23;;;;;;;15.98;2.38;;;36.30;24.10;;;;;;5034778;28;20041;-65
2022/06/10 02:53:50;;;;;;;17.35;2.10;;;36.20;24.10;;;;;;5053929;28;20130;-64
2022/06/10 02:56:23;;;;;;;14.65;2.55;;;36.10;24.40;;;;;;5039007;28;20414;-63
2022/06/10 03:02:10;;;;;;;16.65;2.50;;;36.00;25.10;;;;;;5042606;28;20138;-65
2022/06/10 03:05:11;;;;;;;16.80;2.63;;;36.00;25.40;;;;;;4971655;28;20046;-66
2022/06/10 03:07:58;;;;;;;15.68;2.90;;;35.80;25.60;;;;;;4988624;28;20079;-67
2022/06/10 03:10:38;;;;;;;20.67;2.67;;;35.70;25.90;;;;;;4973558;28;20129;-64
2022/06/10 03:13:04;;;;;;;24.98;3.20;;;35.70;26.10;;;;;;4978662;28;20048;-65
2022/06/10 03:15:50;;;;;;;18.08;2.38;;;35.60;26.20;;;;;;4971075;28;20513;-65
2022/06/10 03:18:35;;;;;;;16.17;2.43;;;35.50;26.20;;;;;;4969635;28;20054;-65
2022/06/10 03:21:01;;;;;;;15.77;3.17;;;35.50;26.50;;;;;;4966146;28;20410;-65
2022/06/10 03:24:29;;;;;;;11.73;2.00;;;35.30;26.50;;;;;;4985420;28;20188;-65
2022/06/10 03:27:10;;;;;;;18.50;2.65;;;35.20;26.70;;;;;;4870493;29;20079;-65
2022/06/10 03:29:47;;;;;;;17.50;2.42;;;35.10;27.00;;;;;;4872660;29;20517;-65
2022/06/10 03:32:39;;;;;;;15.13;2.40;;;35.10;27.30;;;;;;4873824;29;20068;-64
2022/06/10 03:35:12;;;;;;;20.70;2.83;;;35.00;27.40;;;;;;4873992;29;20065;-65
2022/06/10 03:37:40;;;;;;;20.73;3.08;;;35.00;27.70;;;;;;4873248;29;20068;-65
2022/06/10 03:40:13;;;;;;;16.63;3.22;;;34.90;27.90;;;;;;4890631;29;20064;-66
2022/06/10 03:42:47;;;;;;;21.00;2.65;;;34.90;28.10;;;;;;4896360;29;20064;-65
2022/06/10 03:45:17;;;;;;;22.52;3.20;;;34.80;28.20;;;;;;4910464;29;20176;-65
2022/06/10 03:47:44;;;;;;;21.63;3.38;;;34.80;28.40;;;;;;4913456;29;20547;-65
2022/06/10 03:50:15;;;;;;;20.15;3.10;;;34.70;28.50;;;;;;4913693;29;20079;-66
2022/06/10 03:52:44;;;;;;;24.35;2.88;;;34.60;28.40;;;;;;4909978;29;20089;-66
2022/06/10 03:55:17;;;;;;;7.50;2.58;;;34.70;29.00;;;;;;4911079;29;20441;-65
2022/06/10 03:57:45;;;;;;;12.65;2.65;;;34.60;28.70;;;;;;4911215;29;20106;-65
2022/06/10 04:00:18;;;;;;;29.42;3.58;;;34.60;28.80;;;;;;4922680;29;20083;-66
2022/06/10 04:02:44;;;;;;;18.48;3.13;;;34.60;28.90;;;;;;4986341;28;20069;-65
2022/06/10 04:05:11;;;;;;;19.35;2.78;;;34.50;28.90;;;;;;5018193;28;20114;-65
2022/06/10 04:07:39;;;;;;;20.70;3.00;;;34.50;28.90;;;;;;5037091;28;20519;-65
2022/06/10 04:10:09;;;;;;;20.73;3.25;;;34.50;28.90;;;;;;5033918;28;20062;-65
2022/06/10 04:12:36;;;;;;;15.82;2.67;;;34.40;29.20;;;;;;5016697;28;20416;-66
2022/06/10 04:15:05;;;;;;;20.52;2.67;;;34.50;29.00;;;;;;5054117;28;20072;-65
2022/06/10 04:17:31;;;;;;;18.70;2.50;;;34.40;29.00;;;;;;5053475;28;20572;-65
2022/06/10 04:19:59;;;;;;;23.10;3.50;;;34.40;29.00;;;;;;5036891;28;20103;-65
2022/06/10 04:22:27;;;;;;;21.23;3.60;;;34.30;29.00;;;;;;5054997;28;20966;-65
2022/06/10 04:24:54;;;;;;;23.08;3.22;;;34.30;29.20;;;;;;5022283;28;20084;-65
2022/06/10 04:27:20;;;;;;;36.55;4.85;;;34.30;29.20;;;;;;5037527;28;20070;-64
2022/06/10 04:29:47;;;;;;;26.52;4.22;;;34.20;29.40;;;;;;5038707;28;20056;-66
2022/06/10 04:32:14;;;;;;;22.20;3.78;;;34.60;29.40;;;;;;5038640;28;20040;-67
2022/06/10 04:34:40;;;;;;;21.77;3.92;;;34.80;29.00;;;;;;5035603;28;20073;-64
2022/06/10 04:37:07;;;;;;;29.17;3.85;;;35.00;28.80;;;;;;5036003;28;20035;-67
2022/06/10 04:39:34;;;;;;;20.48;3.67;;;35.00;28.50;;;;;;5045393;28;20548;-65
2022/06/10 04:42:00;;;;;;;19.83;3.55;;;35.20;28.40;;;;;;5039444;28;20480;-69
2022/06/10 04:44:27;;;;;;;24.75;3.63;;;35.20;28.20;;;;;;5058136;28;20068;-63
2022/06/10 04:46:53;;;;;;;23.35;2.92;;;35.30;28.30;;;;;;5038153;28;20053;-65
2022/06/10 04:49:19;;;;;;;16.95;3.03;;;35.20;28.20;;;;;;5041098;28;20021;-64
2022/06/10 04:51:46;;;;;;;17.50;3.05;;;35.20;28.20;;;;;;5024427;28;20031;-65
2022/06/10 04:54:12;;;;;;;20.80;3.03;;;35.20;28.30;;;;;;5022151;28;20031;-65
2022/06/10 04:56:39;;;;;;;13.80;2.80;;;35.20;28.20;;;;;;5057187;28;20040;-64
2022/06/10 04:59:06;;;;;;;18.52;2.90;;;35.20;28.20;;;;;;5057435;28;20073;-64
2022/06/10 05:01:32;;;;;;;18.08;2.95;;;35.10;28.30;;;;;;5028349;28;20042;-64
2022/06/10 05:03:58;;;;;;;17.17;3.15;;;35.00;28.40;;;;;;5022947;28;20377;-63
2022/06/10 05:06:25;;;;;;;17.17;3.85;;;35.10;28.50;;;;;;5039982;28;20504;-63
2022/06/10 05:08:51;;;;;;;20.45;3.88;;;35.00;28.40;;;;;;5035838;28;20087;-65
2022/06/10 05:11:18;;;;;;;26.27;4.45;;;35.00;28.50;;;;;;5066325;28;20038;-64
2022/06/10 05:13:44;;;;;;;26.70;7.07;;;35.00;28.50;;;;;;5035318;28;20094;-64
2022/06/10 05:16:12;;;;;;;29.45;6.85;;;35.00;28.50;;;;;;5058350;28;20488;-65
2022/06/10 05:18:39;;;;;;;23.65;5.80;;;35.00;28.60;;;;;;5064598;28;20101;-66
2022/06/10 05:21:05;;;;;;;31.63;4.38;;;34.90;28.70;;;;;;5037357;28;20077;-62
2022/06/10 05:23:31;;;;;;;31.83;3.80;;;34.80;28.70;;;;;;5021560;28;20055;-65
2022/06/10 05:25:58;;;;;;;27.33;3.20;;;34.60;28.90;;;;;;5029529;28;20045;-69
2022/06/10 05:28:25;;;;;;;32.42;4.43;;;34.60;29.10;;;;;;5042708;28;20431;-65
2022/06/10 05:30:52;;;;;;;25.98;3.03;;;34.50;29.10;;;;;;5041784;28;20051;-66
2022/06/10 05:33:18;;;;;;;25.08;3.20;;;34.40;29.30;;;;;;5037521;28;20049;-68
2022/06/10 05:35:46;;;;;;;27.90;3.72;;;34.30;29.30;;;;;;5034967;28;20039;-67
2022/06/10 05:38:12;;;;;;;22.90;4.65;;;34.20;29.20;;;;;;5038686;28;20182;-67
2022/06/10 05:40:39;;;;;;;20.75;4.15;;;34.10;29.50;;;;;;5037151;28;20049;-67
2022/06/10 05:43:06;;;;;;;33.20;5.35;;;34.10;29.30;;;;;;5039412;28;20138;-65
2022/06/10 05:45:33;;;;;;;18.80;5.82;;;34.10;29.20;;;;;;5041245;28;20500;-65
2022/06/10 05:48:01;;;;;;;22.95;5.80;;;34.00;29.20;;;;;;5036495;28;20471;-68
2022/06/10 05:50:40;;;;;;;288.27;26.38;;;34.00;29.20;;;;;;5021218;28;20064;-68
2022/06/10 05:53:12;;;;;;;24.05;6.20;;;34.00;29.20;;;;;;5034213;28;20443;-67
2022/06/10 05:55:38;;;;;;;31.08;7.95;;;33.80;28.80;;;;;;5034300;28;20075;-66
2022/06/10 05:58:05;;;;;;;19.48;5.93;;;33.80;28.90;;;;;;5021715;28;20051;-68
2022/06/10 06:00:32;;;;;;;37.28;6.80;;;33.80;28.80;;;;;;5035332;28;20488;-67
2022/06/10 06:02:59;;;;;;;23.52;6.28;;;33.70;28.90;;;;;;5028379;28;20049;-68
2022/06/10 06:05:28;;;;;;;20.00;6.00;;;33.70;28.20;;;;;;5042280;28;20048;-68
2022/06/10 06:07:54;;;;;;;29.70;6.93;;;33.70;28.00;;;;;;5044017;28;20064;-68
2022/06/10 06:10:25;;;;;;;22.75;6.22;;;33.70;27.80;;;;;;5021970;28;20045;-68
2022/06/10 06:12:51;;;;;;;20.00;5.70;;;33.60;27.40;;;;;;5060069;28;20066;-68
2022/06/10 06:15:18;;;;;;;20.20;6.00;;;33.50;27.50;;;;;;5037821;28;20689;-68
2022/06/10 06:17:44;;;;;;;25.05;5.70;;;33.50;27.60;;;;;;5049596;28;20060;-68
2022/06/10 06:20:13;;;;;;;20.45;5.25;;;33.50;27.50;;;;;;5041570;28;20413;-67
2022/06/10 06:22:40;;;;;;;16.85;4.03;;;33.50;27.40;;;;;;5022759;28;20067;-68
2022/06/10 06:25:07;;;;;;;16.60;4.28;;;33.50;27.40;;;;;;5042143;28;20051;-69
2022/06/10 06:27:34;;;;;;;12.82;3.17;;;33.50;27.40;;;;;;5058909;28;20099;-67
2022/06/10 06:30:01;;;;;;;14.13;3.25;;;33.50;27.50;;;;;;5039724;28;20495;-67
2022/06/10 06:32:27;;;;;;;20.20;3.65;;;33.50;27.60;;;;;;5040581;28;20459;-69
2022/06/10 06:34:54;;;;;;;13.77;4.10;;;33.50;27.90;;;;;;5032826;28;20047;-69
2022/06/10 06:37:21;;;;;;;14.52;3.03;;;33.50;28.10;;;;;;5035666;28;20025;-68
2022/06/10 06:39:47;;;;;;;16.88;3.20;;;33.50;28.20;;;;;;5034893;28;20138;-68
2022/06/10 06:42:13;;;;;;;11.25;2.42;;;33.50;28.30;;;;;;5039123;28;20471;-68
2022/06/10 06:44:40;;;;;;;12.35;2.40;;;33.50;28.50;;;;;;5037826;28;20046;-66
2022/06/10 06:47:12;;;;;;;14.77;2.58;;;33.40;28.60;;;;;;5040697;28;20063;-66
2022/06/10 06:49:39;;;;;;;9.77;2.25;;;33.40;28.60;;;;;;5041331;28;20053;-67
2022/06/10 06:52:08;;;;;;;11.95;2.22;;;33.40;28.60;;;;;;5042037;28;20035;-67
2022/06/10 06:54:37;;;;;;;11.75;2.47;;;33.40;28.70;;;;;;5060397;28;20450;-67
2022/06/10 06:57:05;;;;;;;12.82;2.53;;;33.40;28.80;;;;;;5058292;28;20108;-67
2022/06/10 06:59:33;;;;;;;16.80;2.30;;;33.40;28.90;;;;;;5041107;28;20083;-66
2022/06/10 07:01:59;;;;;;;11.85;2.38;;;33.40;28.90;;;;;;5021246;28;20085;-66
2022/06/10 07:04:26;;;;;;;8.23;1.83;;;33.30;28.90;;;;;;5042990;28;20048;-67
2022/06/10 07:06:53;;;;;;;16.15;2.40;;;33.30;29.10;;;;;;5036046;28;20152;-68
2022/06/10 07:09:19;;;;;;;13.15;2.30;;;33.30;29.30;;;;;;5055332;28;20051;-67
2022/06/10 07:11:46;;;;;;;11.02;2.50;;;33.10;29.60;;;;;;5019689;28;20494;-66
2022/06/10 07:14:13;;;;;;;21.88;2.90;;;33.20;29.70;;;;;;5060041;28;20095;-66
2022/06/10 07:16:39;;;;;;;11.70;3.10;;;33.10;29.90;;;;;;5045600;28;20059;-66
2022/06/10 07:19:06;;;;;;;16.35;3.35;;;33.10;29.90;;;;;;5021981;28;20061;-65
2022/06/10 07:21:33;;;;;;;15.45;4.45;;;33.00;30.10;;;;;;5038019;28;20074;-66
2022/06/10 07:23:59;;;;;;;21.42;4.57;;;32.90;30.40;;;;;;5032123;28;20164;-65
2022/06/10 07:26:26;;;;;;;19.25;4.70;;;32.80;30.60;;;;;;5055233;28;20109;-66
2022/06/10 07:28:53;;;;;;;23.45;5.93;;;32.80;31.00;;;;;;5033997;28;20045;-66
2022/06/10 07:31:20;;;;;;;31.73;6.65;;;32.70;31.10;;;;;;5036511;28;20048;-66
2022/06/10 07:33:46;;;;;;;24.67;6.22;;;32.70;31.20;;;;;;5036666;28;20054;-66
2022/06/10 07:36:12;;;;;;;19.13;5.70;;;32.60;31.40;;;;;;5044862;28;20080;-66
2022/06/10 07:38:39;;;;;;;20.55;6.03;;;32.50;31.60;;;;;;5036332;28;20058;-66
2022/06/10 07:43:51;;;;;;;12.80;4.10;;;32.40;32.00;;;;;;5056258;28;20060;-66
2022/06/10 07:46:20;;;;;;;20.83;4.65;;;32.40;32.30;;;;;;5039298;28;20098;-65
2022/06/10 07:48:46;;;;;;;18.58;5.22;;;32.30;32.30;;;;;;5023291;28;20089;-66
2022/06/10 07:51:13;;;;;;;27.90;5.40;;;32.30;32.80;;;;;;5035186;28;20509;-67
2022/06/10 07:53:41;;;;;;;29.02;5.22;;;32.20;33.30;;;;;;5059569;28;20060;-66
2022/06/10 07:56:08;;;;;;;16.55;5.15;;;32.20;34.10;;;;;;5037014;28;20043;-67
2022/06/10 07:58:35;;;;;;;16.90;3.95;;;32.10;34.60;;;;;;5043197;28;20587;-66
2022/06/10 08:01:01;;;;;;;27.27;4.25;;;32.10;35.70;;;;;;5044453;28;20090;-66
2022/06/10 08:03:28;;;;;;;20.90;3.75;;;32.10;36.20;;;;;;5038744;28;20115;-67
2022/06/10 08:05:55;;;;;;;23.13;4.10;;;32.00;36.70;;;;;;5057702;28;21544;-66
2022/06/10 08:08:22;;;;;;;17.00;4.43;;;32.00;37.30;;;;;;5038922;28;20116;-66
2022/06/10 08:10:48;;;;;;;15.80;3.10;;;31.80;38.20;;;;;;5037453;28;20469;-66
2022/06/10 08:13:15;;;;;;;15.95;3.35;;;31.70;39.70;;;;;;5037647;28;20063;-65
2022/06/10 08:15:44;;;;;;;16.40;3.30;;;31.50;41.10;;;;;;5058935;28;20060;-66
2022/06/10 08:18:12;;;;;;;12.15;2.75;;;31.50;41.90;;;;;;5057029;28;20062;-66
2022/06/10 08:23:27;;;;;;;16.15;3.13;;;31.40;42.40;;;;;;5051358;28;20084;-66
2022/06/10 08:25:56;;;;;;;17.85;3.20;;;31.20;42.90;;;;;;5033526;28;20065;-66
2022/06/10 08:28:23;;;;;;;20.50;3.30;;;31.20;42.90;;;;;;5035223;28;20115;-66
2022/06/10 08:30:49;;;;;;;19.63;3.42;;;31.20;43.90;;;;;;5035636;28;20151;-66
2022/06/10 08:33:16;;;;;;;20.42;2.85;;;30.90;44.00;;;;;;5052865;28;20503;-66
2022/06/10 08:35:43;;;;;;;15.75;2.90;;;30.90;44.70;;;;;;5051870;28;20072;-66
2022/06/10 08:38:13;;;;;;;17.60;3.08;;;30.90;45.40;;;;;;5056888;28;20074;-65
2022/06/10 08:41:05;;;;;;;12.18;3.45;;;30.70;48.00;;;;;;5036099;28;20100;-67
2022/06/10 08:44:07;;;;;;;9.80;2.85;;;30.70;49.00;;;;;;5055771;28;20090;-66
2022/06/10 08:47:18;;;;;;;12.00;3.03;;;30.60;50.20;;;;;;5053757;28;20124;-66
2022/06/10 08:50:03;;;;;;;13.57;2.88;;;30.40;51.30;;;;;;5029664;28;20434;-67
2022/06/10 08:52:54;;;;;;;9.80;2.90;;;30.40;51.60;;;;;;5062996;28;20587;-66
2022/06/10 08:55:30;;;;;;;14.13;3.00;;;30.60;51.60;;;;;;5051467;28;20396;-66
2022/06/10 08:57:58;;;;;;;14.83;3.47;;;30.60;51.80;;;;;;5052495;28;20140;-66
2022/06/10 09:00:29;;;;;;;14.10;2.85;;;30.70;52.00;;;;;;5053446;28;20626;-66
2022/06/10 09:02:58;;;;;;;19.83;3.08;;;30.70;52.00;;;;;;5051384;28;20061;-68
2022/06/10 09:05:32;;;;;;;14.77;3.25;;;30.70;52.00;;;;;;5037184;28;20072;-67
2022/06/10 09:08:03;;;;;;;18.45;3.30;;;30.60;52.00;;;;;;5043507;28;20199;-66
2022/06/10 09:10:54;;;;;;;13.23;3.28;;;30.50;52.20;;;;;;5041479;28;20532;-67
2022/06/10 09:13:38;;;;;;;16.63;3.72;;;30.30;52.70;;;;;;5038838;28;20056;-67
2022/06/10 09:16:35;;;;;;;19.15;3.65;;;30.40;52.80;;;;;;5054450;28;20059;-66
2022/06/10 09:19:10;;;;;;;;;;;30.50;52.60;;;;;;5044198;28;20121;-66
2022/06/10 09:21:58;;;;;;;12.10;3.15;;;30.70;52.90;;;;;;5035826;28;19964;-67
2022/06/10 09:24:33;;;;;;;10.35;2.92;;;30.40;52.90;;;;;;5033585;28;20070;-66
2022/06/10 09:27:30;;;;;;;16.13;2.90;;;30.40;52.90;;;;;;5057460;28;20111;-66
2022/06/10 09:29:58;;;;;;;10.65;2.88;;;30.30;52.90;;;;;;5025444;28;20078;-65
2022/06/10 09:32:35;;;;;;;13.18;3.10;;;30.20;53.10;;;;;;5043154;28;20066;-66
2022/06/10 09:35:19;;;;;;;10.10;2.63;;;30.20;53.30;;;;;;5062501;28;20430;-66
2022/06/10 09:38:15;;;;;;;15.57;2.83;;;30.10;53.70;;;;;;5038009;28;20078;-66
2022/06/10 09:40:55;;;;;;;14.50;3.35;;;29.80;54.30;;;;;;5055814;28;20567;-66
2022/06/10 09:43:33;;;;;;;13.93;2.88;;;29.70;54.90;;;;;;5044983;28;20509;-66
2022/06/10 09:46:07;;;;;;;10.73;2.83;;;29.70;55.30;;;;;;5065405;28;20075;-68
2022/06/10 09:48:52;;;;;;;11.43;2.40;;;29.50;56.50;;;;;;5036606;28;20446;-67
2022/06/10 09:51:58;;;;;;;9.00;2.75;;;29.60;57.10;;;;;;5049721;28;20162;-67
2022/06/10 09:54:31;;;;;;;13.65;3.63;;;29.40;57.60;;;;;;5047280;28;20063;-64
2022/06/10 09:57:25;;;;;;;9.45;2.95;;;29.40;57.90;;;;;;5053981;28;20084;-64
2022/06/10 10:00:11;;;;;;;14.18;3.63;;;29.20;57.80;;;;;;5039876;28;20091;-67
2022/06/10 10:03:07;;;;;;;13.05;3.60;;;29.30;57.90;;;;;;5041725;28;20154;-65
2022/06/10 10:06:02;;;;;;;14.50;3.05;;;29.30;57.90;;;;;;5065384;28;20536;-65
2022/06/10 10:08:42;;;;;;;13.48;3.30;;;29.20;58.00;;;;;;5038434;28;20093;-66
2022/06/10 10:11:20;;;;;;;13.20;3.28;;;29.10;58.50;;;;;;5038420;28;20073;-66
2022/06/10 10:13:59;;;;;;;16.17;3.30;;;28.90;59.30;;;;;;5036972;28;20909;-65
2022/06/10 10:16:46;;;;;;;16.33;3.60;;;28.90;60.30;;;;;;5063323;28;20073;-65
2022/06/10 10:19:40;;;;;;;18.48;3.22;;;28.70;61.60;;;;;;5056843;28;20078;-66
2022/06/10 10:22:13;;;;;;;18.48;3.40;;;28.80;62.00;;;;;;5048342;28;20065;-66
2022/06/10 10:24:43;;;;;;;14.77;3.63;;;28.70;63.00;;;;;;5036852;28;20075;-65
2022/06/10 10:27:23;;;;;;;16.30;3.22;;;28.50;63.90;;;;;;5041169;28;20096;-66
2022/06/10 10:29:56;;;;;;;16.50;3.58;;;28.70;64.30;;;;;;5041040;28;20073;-66
2022/06/10 10:32:33;;;;;;;12.90;3.72;;;28.60;64.50;;;;;;5035956;28;20602;-66
2022/06/10 10:35:08;;;;;;;18.70;4.07;;;28.60;65.30;;;;;;5046855;28;20439;-65
2022/06/10 10:37:37;;;;;;;16.48;3.22;;;28.50;66.10;;;;;;5034123;28;20072;-66
2022/06/10 10:40:16;;;;;;;15.20;3.92;;;28.50;66.70;;;;;;5045393;28;20132;-67
2022/06/10 10:42:44;;;;;;;25.17;4.20;;;28.40;67.70;;;;;;5042990;28;20075;-67
2022/06/10 10:45:26;;;;;;;23.65;3.90;;;28.30;68.30;;;;;;5036925;28;20119;-65
2022/06/10 10:47:59;;;;;;;16.23;3.60;;;28.30;69.20;;;;;;5064050;28;20077;-65
2022/06/10 10:50:31;;;;;;;18.75;4.15;;;28.20;70.20;;;;;;5037710;28;20075;-65
2022/06/10 10:52:59;;;;;;;22.08;3.90;;;28.20;71.00;;;;;;5048716;28;20073;-66
2022/06/10 10:55:36;;;;;;;14.32;3.05;;;28.20;71.30;;;;;;5042566;28;20074;-66
2022/06/10 10:58:18;;;;;;;16.30;4.05;;;28.20;72.50;;;;;;5027490;28;20401;-66
2022/06/10 11:00:55;;;;;;;18.17;3.60;;;28.10;73.80;;;;;;5034408;28;20112;-67
2022/06/10 11:03:35;;;;;;;21.45;4.35;;;28.10;74.80;;;;;;5037131;28;20076;-65
2022/06/10 11:06:06;;;;;;;17.38;3.65;;;28.00;76.60;;;;;;5040049;28;20084;-65
2022/06/10 11:08:37;;;;;;;11.88;3.45;;;28.00;78.60;;;;;;5040424;28;20086;-66
2022/06/10 11:11:04;;;;;;;17.50;3.45;;;28.10;79.90;;;;;;5054846;28;20083;-65
2022/06/10 11:13:54;;;;;;;13.43;3.60;;;28.00;81.20;;;;;;5039691;28;20167;-65
2022/06/10 11:16:26;;;;;;;13.35;3.60;;;28.00;83.20;;;;;;5037663;28;20164;-65
2022/06/10 11:19:11;;;;;;;14.52;3.90;;;28.00;83.60;;;;;;5037290;28;20154;-65
2022/06/10 11:21:49;;;;;;;25.90;4.10;;;27.90;83.60;;;;;;5038504;28;20169;-66
2022/06/10 11:24:22;;;;;;;16.95;3.83;;;27.80;84.40;;;;;;5055965;28;20073;-66
2022/06/10 11:26:55;;;;;;;21.17;3.90;;;27.80;85.20;;;;;;5058339;28;20077;-66
2022/06/10 11:29:21;;;;;;;17.15;4.43;;;27.80;85.90;;;;;;5051648;28;20522;-66
2022/06/10 11:31:56;;;;;;;20.90;5.07;;;27.70;86.50;;;;;;5021778;28;20070;-66
2022/06/10 11:34:36;;;;;;;14.63;3.78;;;27.80;86.80;;;;;;5037970;28;20546;-67
2022/06/10 11:37:26;;;;;;;19.00;3.70;;;27.70;87.70;;;;;;5052737;28;20122;-67
2022/06/10 11:40:02;;;;;;;12.15;3.10;;;27.60;89.00;;;;;;5019072;28;20070;-66
2022/06/10 11:42:37;;;;;;;16.88;3.95;;;27.50;89.80;;;;;;5042205;28;20093;-66
2022/06/10 11:45:22;;;;;;;16.73;3.50;;;27.50;90.10;;;;;;5021016;28;20069;-66
2022/06/10 11:48:03;;;;;;;12.57;3.42;;;27.60;90.40;;;;;;5042172;28;20098;-66
2022/06/10 11:51:01;;;;;;;11.55;3.78;;;27.60;90.10;;;;;;5059977;28;20070;-68
2022/06/10 11:53:37;;;;;;;19.27;3.50;;;27.60;90.30;;;;;;5036056;28;20597;-68
2022/06/10 12:01:47;;;;;;;14.32;3.83;;;27.30;90.50;;;;;;5055934;28;20576;-67
2022/06/10 12:04:21;;;;;;;15.50;4.13;;;27.30;90.50;;;;;;5031077;28;20082;-68
2022/06/10 12:07:06;;;;;;;14.13;3.45;;;27.30;90.60;;;;;;5050978;28;20485;-67
2022/06/10 12:09:44;;;;;;;13.52;3.75;;;27.30;90.40;;;;;;5059252;28;20090;-67
2022/06/10 12:12:31;;;;;;;21.23;3.70;;;27.40;90.30;;;;;;5057588;28;20098;-67
2022/06/10 12:15:01;;;;;;;10.98;3.17;;;27.40;90.20;;;;;;5042483;28;20430;-67
2022/06/10 12:17:38;;;;;;;16.42;3.60;;;27.50;90.20;;;;;;5048670;28;20439;-67
2022/06/10 12:20:32;;;;;;;17.15;3.83;;;27.40;90.00;;;;;;5039199;28;20444;-68
2022/06/10 12:23:27;;;;;;;16.85;3.50;;;27.50;89.90;;;;;;5047418;28;20090;-69
2022/06/10 12:26:05;;;;;;;15.25;3.40;;;27.50;89.30;;;;;;5037062;28;20074;-68
2022/06/10 12:28:39;;;;;;;18.92;3.83;;;27.50;88.70;;;;;;5020347;28;20102;-67
2022/06/10 12:31:47;;;;;;;14.38;3.70;;;27.40;87.80;;;;;;5053862;28;20064;-67
2022/06/10 12:34:25;;;;;;;21.85;4.03;;;27.40;87.80;;;;;;5030386;28;20614;-67
2022/06/10 12:36:58;;;;;;;21.95;4.50;;;27.50;87.80;;;;;;5011297;28;20194;-67
2022/06/10 12:39:27;;;;;;;21.50;5.03;;;27.60;87.50;;;;;;4993378;28;20173;-67
2022/06/10 12:42:10;;;;;;;26.80;4.57;;;27.60;87.20;;;;;;5025445;28;20072;-66
2022/06/10 12:44:41;;;;;;;19.73;4.68;;;27.60;86.60;;;;;;5026891;28;20549;-66
2022/06/10 12:47:11;;;;;;;17.48;4.38;;;27.70;86.30;;;;;;5026532;28;20092;-68
2022/06/10 12:49:45;;;;;;;26.40;4.28;;;27.70;85.20;;;;;;5001691;28;20075;-66
2022/06/10 12:52:49;;;;;;;24.50;3.97;;;27.70;83.50;;;;;;5026700;28;20178;-67
2022/06/10 12:55:45;;;;;;;23.50;3.90;;;27.60;81.40;;;;;;4987855;28;20798;-66
2022/06/10 12:58:43;;;;;;;19.58;4.38;;;27.70;80.10;;;;;;5023751;28;21614;-65
2022/06/10 13:01:19;;;;;;;27.48;4.45;;;27.60;78.50;;;;;;5009555;28;20122;-65
2022/06/10 13:03:56;;;;;;;19.67;4.15;;;27.60;77.60;;;;;;5008251;28;20127;-67
2022/06/10 13:06:49;;;;;;;27.45;3.58;;;27.70;76.90;;;;;;5024724;28;20157;-66
2022/06/10 13:09:26;;;;;;;22.27;3.00;;;27.60;77.00;;;;;;5009231;28;20079;-65
2022/06/10 13:11:57;;;;;;;22.83;3.85;;;27.60;77.40;;;;;;5042313;28;20174;-67
2022/06/10 13:14:30;;;;;;;16.65;3.55;;;27.50;77.60;;;;;;5045022;28;21151;-64
2022/06/10 13:17:00;;;;;;;20.08;3.65;;;27.60;78.10;;;;;;5044181;28;20078;-66
2022/06/10 13:20:00;;;;;;;15.25;3.75;;;27.40;78.90;;;;;;5046731;28;20173;-66
2022/06/10 13:22:32;;;;;;;16.33;3.53;;;27.50;79.70;;;;;;5043251;28;20074;-67
2022/06/10 13:24:58;;;;;;;19.25;3.30;;;27.60;80.10;;;;;;5040850;28;20559;-66
2022/06/10 13:27:42;;;;;;;25.00;3.33;;;27.60;80.40;;;;;;5044886;28;20095;-66
2022/06/10 13:30:16;;;;;;;26.20;3.10;;;27.60;81.00;;;;;;5054593;28;20065;-67